Time;durP1;ratioP1;P1;durP2;ratioP2;P2;SDS_P1;SDS_P2;PMS_P1;PMS_P2;Temp;Humidity;BMP_temperature;BMP_pressure;BME280_temperature;BME280_humidity;BME280_pressure;Samples;Min_cycle;Max_cycle;Signal;HPM_P1;HPM_P2
2021/05/30 00:00:28;;;;;;;4.93;2.85;;;;;;;10.15;92.68;96213.03;1004734;29;20464;-78
2021/05/30 00:00:59;;;;;;;4.82;3.10;;;;;;;10.16;93.33;96220.81;1008627;29;20025;-79
2021/05/30 00:01:30;;;;;;;6.00;3.42;;;;;;;10.10;93.91;96213.53;1004541;29;20492;-79
2021/05/30 00:02:01;;;;;;;4.53;2.95;;;;;;;9.98;94.12;96193.66;1013154;29;20017;-79
2021/05/30 00:02:32;;;;;;;5.07;3.22;;;;;;;9.96;94.01;96192.94;1008599;29;20056;-78
2021/05/30 00:03:02;;;;;;;4.10;2.63;;;;;;;10.05;94.09;96205.25;1012545;29;20020;-78
2021/05/30 00:03:33;;;;;;;4.88;2.85;;;;;;;10.13;93.47;96225.63;1008771;29;20120;-79
2021/05/30 00:04:04;;;;;;;5.85;2.70;;;;;;;10.06;93.35;96211.38;1012252;29;20036;-79
2021/05/30 00:04:34;;;;;;;5.05;3.38;;;;;;;10.03;93.40;96209.03;1008425;29;20068;-79
2021/05/30 00:05:06;;;;;;;4.68;2.85;;;;;;;9.96;95.71;96216.84;1008744;29;20025;-78
2021/05/30 00:05:36;;;;;;;4.65;2.63;;;;;;;9.91;96.48;96227.97;1004811;29;20090;-78
2021/05/30 00:06:08;;;;;;;4.95;2.80;;;;;;;9.93;96.48;96225.97;1008768;29;20419;-79
2021/05/30 00:06:39;;;;;;;5.40;3.08;;;;;;;9.86;95.67;96209.06;1008592;29;20496;-79
2021/05/30 00:07:10;;;;;;;3.70;2.58;;;;;;;9.91;95.93;96209.38;1012895;29;20020;-78
2021/05/30 00:07:41;;;;;;;5.95;3.30;;;;;;;9.98;95.00;96214.88;997411;29;20094;-78
2021/05/30 00:08:13;;;;;;;4.10;2.78;;;;;;;9.96;95.03;96215.03;1004362;29;20032;-79
2021/05/30 00:08:44;;;;;;;5.20;2.90;;;;;;;9.87;94.88;96204.56;1008586;29;20133;-79
2021/05/30 00:09:14;;;;;;;4.55;2.90;;;;;;;10.00;95.21;96221.66;1008409;29;20036;-78
2021/05/30 00:09:46;;;;;;;4.57;2.55;;;;;;;9.96;94.77;96223.00;1004182;29;20017;-78
2021/05/30 00:10:17;;;;;;;6.75;2.83;;;;;;;9.81;94.95;96201.56;1004116;29;20112;-77
2021/05/30 00:10:48;;;;;;;4.55;2.50;;;;;;;9.90;95.09;96220.97;1012210;29;20456;-79
2021/05/30 00:11:19;;;;;;;5.22;2.80;;;;;;;9.96;95.52;96236.25;1000845;29;20022;-78
2021/05/30 00:11:50;;;;;;;6.43;2.75;;;;;;;9.80;95.53;96199.09;1008404;29;20025;-78
2021/05/30 00:12:21;;;;;;;6.55;2.75;;;;;;;9.80;95.90;96205.25;1012317;29;20025;-78
2021/05/30 00:12:52;;;;;;;5.10;2.70;;;;;;;9.90;95.74;96220.16;1016225;29;20024;-79
2021/05/30 00:13:23;;;;;;;5.07;2.72;;;;;;;9.96;96.45;96230.09;1012551;29;20044;-79
2021/05/30 00:13:55;;;;;;;4.88;2.65;;;;;;;9.80;95.74;96205.25;1000763;29;20026;-79
2021/05/30 00:14:26;;;;;;;6.55;3.15;;;;;;;9.92;96.00;96226.94;1012224;29;20471;-79
2021/05/30 00:14:57;;;;;;;4.50;2.97;;;;;;;9.90;95.81;96214.84;1004680;29;20018;-78
2021/05/30 00:15:27;;;;;;;4.22;2.85;;;;;;;9.99;95.24;96232.44;1012530;29;20031;-79
2021/05/30 00:15:58;;;;;;;6.18;3.33;;;;;;;9.99;94.75;96230.59;1000708;29;20526;-78
2021/05/30 00:16:29;;;;;;;6.53;2.88;;;;;;;9.99;95.28;96227.13;1012484;29;20024;-78
2021/05/30 00:16:59;;;;;;;4.65;2.53;;;;;;;9.90;95.10;96223.63;1012393;29;20032;-78
2021/05/30 00:17:30;;;;;;;3.28;2.40;;;;;;;9.94;95.24;96232.91;1008514;29;20372;-79
2021/05/30 00:18:00;;;;;;;5.80;2.90;;;;;;;9.61;95.45;96182.50;1004185;29;20036;-78
2021/05/30 00:18:31;;;;;;;5.10;2.63;;;;;;;9.90;95.41;96220.97;1000593;29;20036;-78
2021/05/30 00:19:02;;;;;;;5.20;2.80;;;;;;;9.84;94.44;96204.88;1004253;29;20031;-78
2021/05/30 00:19:33;;;;;;;3.83;2.83;;;;;;;9.87;94.60;96216.00;1004578;29;20463;-79
2021/05/30 00:20:08;;;;;;;3.85;2.70;;;;;;;9.86;95.39;96227.63;1004391;29;20101;-79
2021/05/30 00:20:39;;;;;;;3.88;2.70;;;;;;;9.88;95.50;96227.47;1008362;29;20025;-79
2021/05/30 00:21:09;;;;;;;4.40;2.88;;;;;;;9.92;95.46;96232.25;1004665;29;20033;-78
2021/05/30 00:21:40;;;;;;;5.47;2.83;;;;;;;9.86;95.42;96221.47;1004474;29;20028;-78
2021/05/30 00:22:11;;;;;;;5.35;2.70;;;;;;;9.89;94.85;96235.25;1008301;29;20024;-78
2021/05/30 00:22:42;;;;;;;6.28;3.08;;;;;;;9.79;96.25;96222.13;1009410;29;20040;-80
2021/05/30 00:23:12;;;;;;;4.47;2.90;;;;;;;9.79;96.23;96221.31;1008546;29;20506;-79
2021/05/30 00:23:43;;;;;;;5.10;2.45;;;;;;;9.76;96.36;96219.81;1004821;29;20480;-78
2021/05/30 00:24:14;;;;;;;4.57;2.70;;;;;;;9.82;96.71;96228.94;1004511;29;20029;-79
2021/05/30 00:24:45;;;;;;;6.25;2.60;;;;;;;9.72;96.31;96204.38;1012365;29;20091;-79
2021/05/30 00:25:15;;;;;;;4.63;3.10;;;;;;;9.78;96.46;96222.31;997042;29;20508;-79
2021/05/30 00:25:46;;;;;;;5.93;3.10;;;;;;;9.71;96.27;96208.84;1004888;29;20033;-78
2021/05/30 00:26:17;;;;;;;6.72;2.65;;;;;;;9.71;96.21;96200.91;997120;29;20023;-78
2021/05/30 00:26:47;;;;;;;5.03;3.08;;;;;;;9.67;96.13;96204.88;1008345;29;20132;-78
2021/05/30 00:27:18;;;;;;;4.85;3.10;;;;;;;9.80;96.28;96226.47;1008488;29;20024;-78
2021/05/30 00:27:49;;;;;;;5.75;2.90;;;;;;;9.73;96.51;96216.66;1004765;29;20502;-79
2021/05/30 00:28:19;;;;;;;4.82;2.70;;;;;;;9.82;96.90;96223.63;1004522;29;20026;-79
2021/05/30 00:28:50;;;;;;;4.85;2.88;;;;;;;9.80;96.35;96229.13;1004730;29;20053;-80
2021/05/30 00:29:20;;;;;;;5.68;3.15;;;;;;;9.81;96.46;96221.97;1012228;29;20103;-80
2021/05/30 00:29:53;;;;;;;5.18;3.08;;;;;;;9.77;97.34;96220.63;1008454;29;20029;-79
2021/05/30 00:30:24;;;;;;;5.03;3.13;;;;;;;9.84;96.76;96221.66;1008619;29;20033;-79
2021/05/30 00:30:54;;;;;;;3.45;2.30;;;;;;;9.77;96.43;96215.31;1004646;29;20025;-78
2021/05/30 00:31:25;;;;;;;4.95;2.85;;;;;;;9.82;96.84;96221.81;1000955;29;20066;-78
2021/05/30 00:31:56;;;;;;;4.80;3.00;;;;;;;9.81;97.43;96224.63;1008515;29;20411;-80
2021/05/30 00:32:27;;;;;;;5.40;3.20;;;;;;;9.78;97.44;96228.44;1000593;29;20397;-78
2021/05/30 00:32:58;;;;;;;5.03;2.90;;;;;;;9.66;97.81;96203.22;1012126;29;20029;-80
2021/05/30 00:33:28;;;;;;;4.47;3.10;;;;;;;9.75;97.86;96219.97;1004571;29;20484;-79
2021/05/30 00:33:59;;;;;;;4.65;3.00;;;;;;;9.77;97.87;96223.28;1006424;29;20022;-80
2021/05/30 00:34:30;;;;;;;9.30;3.72;;;;;;;9.68;97.87;96206.53;1000226;29;20030;-80
2021/05/30 00:35:01;;;;;;;4.93;3.03;;;;;;;9.75;98.30;96217.31;1000489;29;20030;-79
2021/05/30 00:35:31;;;;;;;4.65;3.28;;;;;;;9.69;98.79;96213.50;1004565;29;20575;-79
2021/05/30 00:36:03;;;;;;;6.63;2.80;;;;;;;9.74;99.04;96218.31;1000776;29;20135;-79
2021/05/30 00:36:33;;;;;;;4.35;3.13;;;;;;;9.59;99.75;96208.34;1004541;29;20029;-79
2021/05/30 00:37:04;;;;;;;4.55;3.10;;;;;;;9.61;100.00;96202.88;1005221;29;20472;-79
2021/05/30 00:37:35;;;;;;;4.20;2.83;;;;;;;9.69;99.63;96221.47;1001267;29;20029;-79
2021/05/30 00:38:05;;;;;;;4.38;3.08;;;;;;;9.71;99.46;96223.94;1004704;29;20029;-79
2021/05/30 00:38:36;;;;;;;4.05;2.80;;;;;;;9.66;99.83;96210.34;1001191;29;20477;-79
2021/05/30 00:39:06;;;;;;;4.95;2.97;;;;;;;9.69;99.09;96213.50;1001326;29;20108;-79
2021/05/30 00:39:37;;;;;;;6.70;3.25;;;;;;;9.69;99.04;96210.03;1005001;29;20454;-79
2021/05/30 00:40:08;;;;;;;4.18;2.75;;;;;;;9.65;99.18;96200.72;1012710;29;20028;-80
2021/05/30 00:40:41;;;;;;;6.13;3.00;;;;;;;9.64;99.77;96207.84;1008792;29;20057;-79
2021/05/30 00:41:11;;;;;;;4.50;2.83;;;;;;;9.63;99.59;96206.19;1012632;29;20029;-80
2021/05/30 00:41:42;;;;;;;5.50;3.22;;;;;;;9.59;99.89;96207.53;1012835;29;20024;-80
2021/05/30 00:42:13;;;;;;;5.22;2.97;;;;;;;9.66;100.00;96218.31;1008912;29;20030;-78
2021/05/30 00:42:44;;;;;;;18.98;4.13;;;;;;;9.59;100.00;96210.16;1000930;29;20095;-80
2021/05/30 00:43:14;;;;;;;4.60;3.13;;;;;;;9.54;100.00;96204.53;1009002;29;20037;-81
2021/05/30 00:43:51;;;;;;;5.97;3.30;;;;;;;9.61;100.00;96222.28;1005033;29;20424;-80
2021/05/30 00:44:25;;;;;;;5.63;3.65;;;;;;;9.64;100.00;96221.13;1012510;29;20061;-79
2021/05/30 00:44:56;;;;;;;4.75;3.10;;;;;;;9.63;100.00;96219.44;1008663;29;20056;-79
2021/05/30 00:45:28;;;;;;;5.53;3.20;;;;;;;9.60;100.00;96220.63;1017072;29;20016;-79
2021/05/30 00:45:58;;;;;;;4.03;3.05;;;;;;;9.57;100.00;96209.50;1009313;29;20036;-78
2021/05/30 00:46:30;;;;;;;4.75;3.03;;;;;;;9.52;100.00;96217.94;1001056;29;20026;-78
2021/05/30 00:47:00;;;;;;;4.95;2.97;;;;;;;9.49;100.00;96218.28;1004905;29;20029;-79
2021/05/30 00:47:31;;;;;;;4.18;2.78;;;;;;;9.44;100.00;96212.66;1012499;29;20457;-78
2021/05/30 00:48:02;;;;;;;4.90;2.92;;;;;;;9.49;100.00;96212.13;1000933;29;20030;-79
2021/05/30 00:48:32;;;;;;;5.45;2.95;;;;;;;9.38;100.00;96205.31;1004811;29;20026;-79
2021/05/30 00:49:03;;;;;;;6.38;3.00;;;;;;;9.44;100.00;96212.66;1000841;29;20022;-79
2021/05/30 00:49:34;;;;;;;3.90;2.80;;;;;;;9.43;100.00;96217.09;1004603;29;20423;-79
2021/05/30 00:50:05;;;;;;;6.65;3.22;;;;;;;9.41;100.00;96218.25;997091;29;20030;-79
2021/05/30 00:50:35;;;;;;;4.60;2.90;;;;;;;9.40;100.00;96211.28;1008698;29;20021;-79
2021/05/30 00:51:06;;;;;;;5.38;3.33;;;;;;;9.43;100.00;96208.31;1012205;29;20527;-78
2021/05/30 00:51:37;;;;;;;4.47;3.08;;;;;;;9.42;100.00;96218.09;1004504;29;20102;-78
2021/05/30 00:52:08;;;;;;;5.10;3.13;;;;;;;9.41;100.00;96216.44;1012142;29;20032;-78
2021/05/30 00:52:40;;;;;;;5.10;2.83;;;;;;;9.31;100.00;96196.38;1008493;29;20507;-79
2021/05/30 00:53:11;;;;;;;5.03;2.78;;;;;;;9.38;100.00;96215.94;1004336;29;20037;-78
2021/05/30 00:53:42;;;;;;;6.25;3.25;;;;;;;9.23;100.00;96194.50;1008212;29;20029;-78
2021/05/30 00:54:13;;;;;;;5.15;2.90;;;;;;;9.24;100.00;96193.53;1005284;29;20492;-78
2021/05/30 00:54:43;;;;;;;5.13;3.50;;;;;;;9.33;100.00;96204.97;1005390;29;20021;-78
2021/05/30 00:55:14;;;;;;;4.82;3.10;;;;;;;9.34;100.00;96212.78;1008915;29;20025;-78
2021/05/30 00:55:45;;;;;;;3.95;2.63;;;;;;;9.14;100.00;96182.22;1001511;29;20064;-79
2021/05/30 00:56:16;;;;;;;4.00;3.28;;;;;;;9.35;100.00;96217.09;1005235;29;20018;-79
2021/05/30 00:56:46;;;;;;;6.28;3.30;;;;;;;9.17;100.00;96188.03;997751;29;20029;-79
2021/05/30 00:57:17;;;;;;;4.63;2.65;;;;;;;9.09;100.00;96177.44;1012992;29;20017;-79
2021/05/30 00:57:48;;;;;;;6.35;3.33;;;;;;;9.20;100.00;96200.97;1009145;29;20090;-79
2021/05/30 00:58:18;;;;;;;5.18;3.47;;;;;;;9.15;100.00;96205.94;1008871;29;20106;-79
2021/05/30 00:58:49;;;;;;;4.07;2.88;;;;;;;9.13;100.00;96201.78;1005220;29;20116;-78
2021/05/30 00:59:20;;;;;;;5.25;3.10;;;;;;;9.15;100.00;96210.41;1001548;29;20029;-78
2021/05/30 00:59:50;;;;;;;5.15;3.60;;;;;;;9.15;100.00;96215.69;1001352;29;20385;-78
2021/05/30 01:00:21;;;;;;;5.65;3.30;;;;;;;9.09;100.00;96203.94;1005145;29;20021;-80
2021/05/30 01:00:52;;;;;;;4.65;3.35;;;;;;;9.16;100.00;96202.28;1009143;29;20440;-79
2021/05/30 01:01:23;;;;;;;5.00;3.17;;;;;;;9.18;100.00;96208.25;1005413;29;20022;-80
2021/05/30 01:01:53;;;;;;;4.45;3.17;;;;;;;9.19;100.00;96207.25;1005097;29;20101;-79
2021/05/30 01:02:24;;;;;;;7.35;3.67;;;;;;;9.25;100.00;96214.56;1005250;29;20504;-81
2021/05/30 01:02:55;;;;;;;4.80;2.92;;;;;;;9.29;100.00;96212.44;1005196;29;20509;-79
2021/05/30 01:03:25;;;;;;;6.22;3.25;;;;;;;9.21;100.00;96199.16;1009735;29;20143;-79
2021/05/30 01:03:56;;;;;;;4.45;3.10;;;;;;;9.18;100.00;96194.19;1001526;29;20086;-79
2021/05/30 01:04:27;;;;;;;5.75;3.28;;;;;;;9.24;100.00;96212.91;1013146;29;20021;-80
2021/05/30 01:04:58;;;;;;;6.20;3.25;;;;;;;9.21;100.00;96202.66;1005503;29;20017;-79
2021/05/30 01:05:28;;;;;;;6.57;3.40;;;;;;;9.09;100.00;96200.44;998983;29;20056;-78
2021/05/30 01:05:59;;;;;;;4.65;3.17;;;;;;;9.18;100.00;96208.25;997616;29;20019;-78
2021/05/30 01:06:30;;;;;;;6.30;3.33;;;;;;;9.20;100.00;96224.81;1005165;29;20073;-78
2021/05/30 01:07:01;;;;;;;5.03;3.40;;;;;;;9.08;100.00;96194.31;1005337;29;20453;-79
2021/05/30 01:07:36;;;;;;;4.55;3.30;;;;;;;9.18;100.00;96218.84;1005206;29;20095;-78
2021/05/30 01:08:06;;;;;;;5.85;3.25;;;;;;;9.06;100.00;96201.59;1004970;29;20053;-78
2021/05/30 01:08:37;;;;;;;5.00;3.50;;;;;;;9.11;100.00;96211.69;1005166;29;20018;-78
2021/05/30 01:09:07;;;;;;;4.47;3.40;;;;;;;9.00;100.00;96203.03;1009354;29;20039;-78
2021/05/30 01:09:38;;;;;;;4.85;3.30;;;;;;;9.08;100.00;96215.50;1005521;29;20097;-78
2021/05/30 01:10:29;;;;;;;4.78;3.30;;;;;;;9.04;100.00;96203.59;1011937;29;20023;-79
2021/05/30 01:11:00;;;;;;;5.93;3.33;;;;;;;9.01;100.00;96206.53;1013299;29;20010;-78
2021/05/30 01:11:31;;;;;;;4.78;3.00;;;;;;;8.93;100.00;96195.91;1009840;29;20024;-79
2021/05/30 01:12:02;;;;;;;5.57;2.90;;;;;;;8.91;100.00;96204.00;1013187;29;20059;-79
2021/05/30 01:12:33;;;;;;;4.88;3.42;;;;;;;8.99;100.00;96216.47;1013290;29;20024;-78
2021/05/30 01:13:06;;;;;;;5.68;3.35;;;;;;;8.79;100.00;96184.91;1006223;29;20029;-79
2021/05/30 01:13:37;;;;;;;5.13;3.67;;;;;;;8.96;100.00;96214.13;1017182;29;20538;-79
2021/05/30 01:14:09;;;;;;;5.90;3.15;;;;;;;8.99;100.00;96217.28;1013296;29;20090;-79
2021/05/30 01:14:40;;;;;;;4.47;3.17;;;;;;;8.84;100.00;96198.50;1015123;29;20028;-79
2021/05/30 01:15:11;;;;;;;4.97;3.40;;;;;;;8.90;100.00;96220.06;1005245;29;20017;-80
2021/05/30 01:15:42;;;;;;;5.75;3.42;;;;;;;8.90;100.00;96226.19;1009217;29;20596;-79
2021/05/30 01:16:14;;;;;;;5.53;3.47;;;;;;;8.66;100.00;96190.66;1008896;29;20080;-79
2021/05/30 01:16:45;;;;;;;5.00;3.30;;;;;;;8.84;100.00;96214.41;1001554;29;20018;-79
2021/05/30 01:17:16;;;;;;;4.68;3.17;;;;;;;8.78;100.00;96209.75;1009089;29;20045;-79
2021/05/30 01:17:47;;;;;;;6.78;3.67;;;;;;;8.86;100.00;96220.41;1005357;29;20036;-79
2021/05/30 01:18:22;;;;;;;5.88;3.70;;;;;;;8.73;100.00;96195.34;997333;29;20416;-79
2021/05/30 01:18:54;;;;;;;5.68;3.42;;;;;;;8.72;100.00;96201.59;1008999;29;20391;-79
2021/05/30 01:19:26;;;;;;;5.70;3.50;;;;;;;8.82;100.00;96219.03;1005256;29;20017;-79
2021/05/30 01:19:57;;;;;;;4.88;3.40;;;;;;;8.67;100.00;96191.47;1009344;29;20017;-79
2021/05/30 01:20:27;;;;;;;5.70;3.40;;;;;;;8.83;100.00;96220.69;1009101;29;20025;-79
2021/05/30 01:20:58;;;;;;;5.15;3.42;;;;;;;8.84;100.00;96218.88;1005261;29;20026;-78
2021/05/30 01:21:29;;;;;;;5.85;3.20;;;;;;;8.75;100.00;96210.06;1005263;29;20024;-78
2021/05/30 01:21:59;;;;;;;5.60;3.20;;;;;;;8.87;100.00;96215.91;1001411;29;20022;-78
2021/05/30 01:22:34;;;;;;;5.75;3.95;;;;;;;8.71;100.00;96181.41;1005154;29;20089;-78
2021/05/30 01:23:06;;;;;;;5.13;3.42;;;;;;;8.97;100.00;96223.72;1012803;29;20017;-79
2021/05/30 01:23:37;;;;;;;4.35;3.20;;;;;;;8.98;100.00;96218.28;1013100;29;20017;-79
2021/05/30 01:24:07;;;;;;;4.80;3.42;;;;;;;8.95;100.00;96210.66;1009054;29;20025;-78
2021/05/30 01:24:38;;;;;;;5.15;3.40;;;;;;;9.00;100.00;96220.75;1008952;29;20416;-78
2021/05/30 01:25:13;;;;;;;5.35;3.55;;;;;;;8.85;100.00;96189.59;1012702;29;20020;-79
2021/05/30 01:25:45;;;;;;;5.95;3.50;;;;;;;9.02;100.00;96216.13;1005361;29;20025;-78
2021/05/30 01:26:15;;;;;;;4.38;2.90;;;;;;;9.01;100.00;96214.50;1005562;29;20026;-78
2021/05/30 01:26:46;;;;;;;4.93;3.25;;;;;;;9.05;100.00;96221.13;1008731;29;20124;-79
2021/05/30 01:27:19;;;;;;;5.65;3.13;;;;;;;9.02;100.00;96224.06;1012960;29;20024;-79
2021/05/30 01:27:51;;;;;;;6.03;3.40;;;;;;;9.03;100.00;96223.91;1016797;29;20023;-78
2021/05/30 01:28:21;;;;;;;4.95;3.47;;;;;;;8.98;100.00;96214.81;1005195;29;20396;-79
2021/05/30 01:28:52;;;;;;;7.35;3.78;;;;;;;8.96;100.00;96216.78;1012766;29;20120;-78
2021/05/30 01:29:23;;;;;;;5.85;3.30;;;;;;;8.79;100.00;96194.69;1012928;29;20016;-78
2021/05/30 01:29:53;;;;;;;5.25;3.55;;;;;;;8.77;100.00;96194.03;1009281;29;20017;-78
2021/05/30 01:30:24;;;;;;;4.90;3.33;;;;;;;8.90;100.00;96212.97;1005219;29;20018;-79
2021/05/30 01:30:55;;;;;;;5.75;3.50;;;;;;;8.98;100.00;96225.41;1008842;29;20427;-78
2021/05/30 01:31:25;;;;;;;4.53;3.28;;;;;;;8.79;100.00;96216.69;1009017;29;20379;-78
2021/05/30 01:31:56;;;;;;;4.72;3.38;;;;;;;8.89;100.00;96218.41;1001486;29;20026;-78
2021/05/30 01:32:27;;;;;;;6.00;3.60;;;;;;;8.94;100.00;96222.25;1009102;29;20021;-78
2021/05/30 01:32:57;;;;;;;4.82;3.70;;;;;;;8.90;100.00;96215.59;1009087;29;20017;-79
2021/05/30 01:33:28;;;;;;;5.78;3.72;;;;;;;8.91;100.00;96219.91;1009123;29;20025;-78
2021/05/30 01:34:00;;;;;;;4.47;3.30;;;;;;;8.95;100.00;96220.41;1009121;29;20473;-79
2021/05/30 01:34:40;;;;;;;6.15;3.75;;;;;;;8.89;100.00;96213.94;1014112;29;20025;-79
2021/05/30 01:35:10;;;;;;;;;;;;;;;8.96;100.00;96219.44;1013216;29;20017;-78
2021/05/30 01:35:41;;;;;;;5.55;3.47;;;;;;;8.84;100.00;96209.09;1009149;29;19911;-78
2021/05/30 01:36:12;;;;;;;5.15;3.40;;;;;;;8.85;100.00;96199.38;1016909;29;20017;-78
2021/05/30 01:36:42;;;;;;;5.43;3.78;;;;;;;8.94;100.00;96224.88;1013089;29;20032;-78
2021/05/30 01:37:13;;;;;;;5.60;3.42;;;;;;;8.92;100.00;96226.88;1009084;29;20138;-79
2021/05/30 01:37:44;;;;;;;5.88;3.40;;;;;;;8.86;100.00;96216.91;1005089;29;20025;-79
2021/05/30 01:38:14;;;;;;;6.07;3.28;;;;;;;8.75;100.00;96202.13;1008965;29;20126;-78
2021/05/30 01:39:11;;;;;;;6.25;3.55;;;;;;;8.75;100.00;96199.47;1010335;29;20075;-80
2021/05/30 01:39:47;;;;;;;6.22;3.55;;;;;;;8.76;100.00;96198.50;1004127;29;20029;-78
2021/05/30 01:40:18;;;;;;;5.53;3.83;;;;;;;8.80;100.00;96199.00;1013214;29;20044;-78
2021/05/30 01:40:49;;;;;;;4.95;3.42;;;;;;;8.77;100.00;96192.19;1006315;29;20022;-78
2021/05/30 01:41:24;;;;;;;6.93;3.75;;;;;;;8.92;100.00;96218.06;1013066;29;20065;-78
2021/05/30 01:41:55;;;;;;;7.30;3.97;;;;;;;8.90;100.00;96222.69;1009405;29;20100;-78
2021/05/30 01:42:25;;;;;;;6.63;3.75;;;;;;;8.83;100.00;96218.06;1001789;29;20480;-79
2021/05/30 01:42:56;;;;;;;5.80;3.75;;;;;;;8.89;100.00;96221.88;1005704;29;20396;-79
2021/05/30 01:43:27;;;;;;;5.53;4.00;;;;;;;8.80;100.00;96207.78;1012995;29;20093;-78
2021/05/30 01:43:57;;;;;;;5.30;3.40;;;;;;;8.80;100.00;96220.19;1009363;29;20104;-78
2021/05/30 01:44:28;;;;;;;8.10;3.78;;;;;;;8.38;100.00;96152.94;1013651;29;20045;-79
2021/05/30 01:44:59;;;;;;;5.57;3.78;;;;;;;8.73;100.00;96214.69;1005442;29;20074;-79
2021/05/30 01:45:31;;;;;;;6.30;4.18;;;;;;;8.77;100.00;96218.66;997481;29;20022;-79
2021/05/30 01:46:01;;;;;;;5.13;3.67;;;;;;;8.79;100.00;96227.28;1008967;29;20424;-79
2021/05/30 01:46:32;;;;;;;4.93;3.53;;;;;;;8.80;100.00;96218.38;1009005;29;20028;-79
2021/05/30 01:47:03;;;;;;;4.60;3.53;;;;;;;8.84;100.00;96211.75;1001519;29;20018;-79
2021/05/30 01:47:38;;;;;;;5.75;3.35;;;;;;;8.80;100.00;96197.19;1005034;29;20040;-79
2021/05/30 01:48:08;;;;;;;6.45;4.15;;;;;;;8.93;100.00;96223.22;1005291;29;20025;-79
2021/05/30 01:48:39;;;;;;;5.95;3.90;;;;;;;8.91;100.00;96219.91;1013149;29;20503;-79
2021/05/30 01:49:09;;;;;;;6.28;3.85;;;;;;;8.83;100.00;96218.06;1005152;29;20032;-79
2021/05/30 01:49:41;;;;;;;4.90;3.58;;;;;;;8.85;100.00;96220.56;1008700;29;20080;-79
2021/05/30 01:50:14;;;;;;;5.47;3.50;;;;;;;8.85;100.00;96224.03;1008909;29;20031;-79
2021/05/30 01:50:48;;;;;;;5.75;3.95;;;;;;;8.84;100.00;96214.41;1008959;29;20116;-79
2021/05/30 01:51:19;;;;;;;5.60;3.85;;;;;;;8.87;100.00;96219.38;1012888;29;20024;-79
2021/05/30 01:51:49;;;;;;;4.63;3.40;;;;;;;8.88;100.00;96230.81;1016614;29;20385;-79
2021/05/30 01:52:20;;;;;;;5.72;3.50;;;;;;;8.89;100.00;96227.19;1001275;29;20082;-79
2021/05/30 01:52:51;;;;;;;6.60;3.97;;;;;;;8.84;100.00;96226.81;1005085;29;20037;-79
2021/05/30 01:53:35;;;;;;;6.43;4.10;;;;;;;8.79;100.00;96222.00;1005113;29;20036;-79
2021/05/30 01:54:06;;;;;;;4.80;3.70;;;;;;;8.86;100.00;96227.50;1011138;29;20407;-79
2021/05/30 01:54:41;;;;;;;6.15;3.70;;;;;;;8.78;100.00;96220.34;1012695;29;20080;-79
2021/05/30 01:56:55;;;;;;;7.60;4.43;;;;;;;8.72;100.00;96218.31;1012748;29;20045;-79
2021/05/30 01:57:23;;;;;;;4.43;3.20;;;;;;;8.63;100.00;96222.75;1005132;29;20041;-79
2021/05/30 01:57:55;;;;;;;4.65;3.65;;;;;;;8.55;100.00;96203.34;1004956;29;20026;-79
2021/05/30 01:58:26;;;;;;;5.85;3.88;;;;;;;8.65;100.00;96238.47;1004970;29;20468;-79
2021/05/30 01:58:57;;;;;;;4.82;3.40;;;;;;;8.56;100.00;96221.72;1005259;29;20165;-79
2021/05/30 01:59:28;;;;;;;6.93;3.60;;;;;;;8.61;100.00;96211.47;1001419;29;20486;-79
2021/05/30 01:59:58;;;;;;;4.63;3.50;;;;;;;8.62;100.00;96220.25;1008908;29;20376;-78
2021/05/30 02:00:29;;;;;;;6.05;3.83;;;;;;;8.68;100.00;96232.88;1008765;29;20080;-78
2021/05/30 02:01:00;;;;;;;6.25;3.97;;;;;;;8.66;100.00;96237.50;1016976;29;20067;-78
2021/05/30 02:01:33;;;;;;;6.95;4.28;;;;;;;8.62;100.00;96225.53;1008951;29;20113;-79
2021/05/30 02:02:04;;;;;;;5.72;3.90;;;;;;;8.58;100.00;96218.91;1001258;29;20549;-79
2021/05/30 02:02:35;;;;;;;5.80;4.07;;;;;;;8.51;100.00;96207.28;1008968;29;20476;-79
2021/05/30 02:03:06;;;;;;;6.15;4.15;;;;;;;8.66;100.00;96230.38;1008936;29;20029;-79
2021/05/30 02:03:36;;;;;;;6.25;4.07;;;;;;;8.61;100.00;96226.53;1005331;29;20086;-79
2021/05/30 02:04:07;;;;;;;4.90;3.75;;;;;;;8.68;100.00;96235.50;1013131;29;20080;-79
2021/05/30 02:04:43;;;;;;;5.95;4.13;;;;;;;8.43;100.00;96193.03;1004978;29;20032;-79
2021/05/30 02:05:13;;;;;;;6.82;4.18;;;;;;;8.40;100.00;96193.28;1005095;29;20409;-79
2021/05/30 02:05:49;;;;;;;6.65;4.00;;;;;;;8.65;100.00;96233.19;1005484;29;20100;-79
2021/05/30 02:06:20;;;;;;;5.63;3.75;;;;;;;8.61;100.00;96223.91;1001172;29;20026;-79
2021/05/30 02:06:51;;;;;;;5.88;4.00;;;;;;;8.59;100.00;96228.53;1012744;29;20064;-78
2021/05/30 02:07:22;;;;;;;7.00;4.25;;;;;;;8.62;100.00;96230.84;1005526;29;20030;-78
2021/05/30 02:07:52;;;;;;;7.10;4.40;;;;;;;8.67;100.00;96239.13;1009511;29;20024;-79
2021/05/30 02:08:23;;;;;;;6.55;3.88;;;;;;;8.49;100.00;96208.25;1008890;29;20085;-78
2021/05/30 02:08:54;;;;;;;5.35;4.13;;;;;;;8.63;100.00;96227.22;1005013;29;20076;-78
2021/05/30 02:09:25;;;;;;;7.45;4.05;;;;;;;8.67;100.00;96241.78;1008926;29;20023;-78
2021/05/30 02:09:56;;;;;;;4.55;3.63;;;;;;;8.68;100.00;96246.09;1001295;29;20121;-79
2021/05/30 02:10:26;;;;;;;5.40;4.13;;;;;;;8.63;100.00;96235.16;1001073;29;20026;-79
2021/05/30 02:10:57;;;;;;;5.32;3.80;;;;;;;8.70;100.00;96236.19;1005055;29;20070;-79
2021/05/30 02:11:28;;;;;;;6.70;4.55;;;;;;;8.56;100.00;96218.25;1005101;29;20025;-78
2021/05/30 02:11:59;;;;;;;5.75;4.03;;;;;;;8.63;100.00;96230.69;1001155;29;20429;-78
2021/05/30 02:12:29;;;;;;;7.45;4.70;;;;;;;8.18;100.00;96168.19;997204;29;20033;-78
2021/05/30 02:13:00;;;;;;;6.43;4.25;;;;;;;8.62;100.00;96238.78;1001109;29;20026;-78
2021/05/30 02:13:31;;;;;;;7.32;4.30;;;;;;;8.62;100.00;96228.19;1001215;29;20477;-78
2021/05/30 02:14:01;;;;;;;5.38;4.03;;;;;;;8.54;100.00;96212.28;1005154;29;20033;-78
2021/05/30 02:14:32;;;;;;;6.88;4.50;;;;;;;8.62;100.00;96226.38;1012686;29;20035;-78
2021/05/30 02:15:04;;;;;;;5.93;4.20;;;;;;;8.67;100.00;96236.50;1008925;29;20386;-78
2021/05/30 02:15:35;;;;;;;7.00;4.40;;;;;;;8.68;100.00;96240.81;1012899;29;20067;-79
2021/05/30 02:16:06;;;;;;;6.85;4.03;;;;;;;8.61;100.00;96215.97;1012814;29;20036;-78
2021/05/30 02:16:37;;;;;;;6.28;4.28;;;;;;;8.67;100.00;96233.84;1004869;29;20021;-78
2021/05/30 02:17:08;;;;;;;6.13;4.43;;;;;;;8.66;100.00;96234.84;1008914;29;20044;-78
2021/05/30 02:17:38;;;;;;;5.60;4.25;;;;;;;8.61;100.00;96223.91;1008806;29;20036;-79
2021/05/30 02:18:09;;;;;;;6.45;4.22;;;;;;;8.63;100.00;96228.03;1016572;29;20486;-78
2021/05/30 02:18:40;;;;;;;6.65;4.15;;;;;;;8.45;100.00;96204.28;1005046;29;20040;-80
2021/05/30 02:19:10;;;;;;;6.38;4.28;;;;;;;8.61;100.00;96226.53;1016503;29;20427;-78
2021/05/30 02:19:41;;;;;;;6.30;4.05;;;;;;;8.55;100.00;96221.88;1008914;29;20029;-79
2021/05/30 02:20:12;;;;;;;6.88;4.57;;;;;;;8.45;100.00;96198.16;1008790;29;20115;-79
2021/05/30 02:20:43;;;;;;;7.50;4.20;;;;;;;8.55;100.00;96205.97;1012629;29;20534;-79
2021/05/30 02:21:13;;;;;;;7.63;4.28;;;;;;;8.65;100.00;96226.06;1012767;29;20067;-79
2021/05/30 02:21:46;;;;;;;5.88;4.30;;;;;;;8.18;100.00;96144.38;1008832;29;20528;-78
2021/05/30 02:22:16;;;;;;;6.43;3.95;;;;;;;8.67;100.00;96228.53;1005132;29;20021;-78
2021/05/30 02:22:47;;;;;;;6.90;4.03;;;;;;;8.66;100.00;96221.59;1005011;29;20021;-78
2021/05/30 02:23:18;;;;;;;7.38;4.18;;;;;;;8.69;100.00;96221.31;1016450;29;20042;-78
2021/05/30 02:23:49;;;;;;;6.43;4.63;;;;;;;8.62;100.00;96209.66;1016618;29;20063;-78
2021/05/30 02:24:21;;;;;;;6.10;4.05;;;;;;;8.70;100.00;96230.06;1008814;29;20028;-79
2021/05/30 02:24:52;;;;;;;7.65;4.82;;;;;;;8.62;100.00;96214.94;1012780;29;20020;-79
2021/05/30 02:25:22;;;;;;;6.50;4.38;;;;;;;8.44;100.00;96191.19;1012595;29;20032;-79
2021/05/30 02:25:53;;;;;;;4.82;3.80;;;;;;;8.64;100.00;96226.22;1005106;29;20032;-78
2021/05/30 02:26:26;;;;;;;5.82;4.40;;;;;;;8.63;100.00;96235.97;1005161;29;20112;-78
2021/05/30 02:26:57;;;;;;;6.63;4.35;;;;;;;8.61;100.00;96234.47;1004846;29;20028;-79
2021/05/30 02:27:27;;;;;;;6.07;4.25;;;;;;;8.51;100.00;96226.63;1016579;29;20114;-79
2021/05/30 02:27:58;;;;;;;6.65;4.60;;;;;;;8.51;100.00;96229.28;1008507;29;20025;-79
2021/05/30 02:28:29;;;;;;;7.32;4.18;;;;;;;8.53;100.00;96229.13;1001145;29;20030;-79
2021/05/30 02:28:59;;;;;;;5.18;3.97;;;;;;;8.48;100.00;96230.44;1008957;29;20072;-79
2021/05/30 02:29:39;;;;;;;6.00;4.32;;;;;;;8.53;100.00;96240.53;1004934;29;20081;-79
2021/05/30 02:30:10;;;;;;;8.00;4.80;;;;;;;8.25;100.00;96189.56;1004885;29;20066;-79